Time;durP1;ratioP1;P1;durP2;ratioP2;P2;SDS_P1;SDS_P2;PMS_P1;PMS_P2;Temp;Humidity;BMP_temperature;BMP_pressure;BME280_temperature;BME280_humidity;BME280_pressure;Samples;Min_cycle;Max_cycle;Signal;HPM_P1;HPM_P2
2022/11/14 00:00:15;;;;;;;23.45;16.38;;;10.60;96.10;;;;;;6219889;23;20066;-81
2022/11/14 00:02:41;;;;;;;22.08;15.82;;;10.50;96.10;;;;;;6219923;23;20005;-81
2022/11/14 00:05:08;;;;;;;23.40;16.27;;;10.50;96.20;;;;;;6194781;23;20023;-81
2022/11/14 00:07:34;;;;;;;23.33;15.43;;;10.50;96.20;;;;;;6246428;23;20015;-82
2022/11/14 00:10:00;;;;;;;21.83;15.45;;;10.40;96.20;;;;;;6194453;23;20005;-81
2022/11/14 00:12:26;;;;;;;23.23;16.30;;;10.40;96.30;;;;;;6219650;23;20004;-81
2022/11/14 00:14:54;;;;;;;25.27;17.42;;;10.30;96.20;;;;;;6194729;23;20047;-81
2022/11/14 00:17:20;;;;;;;23.15;15.75;;;10.30;96.40;;;;;;6195046;23;20051;-81
2022/11/14 00:19:45;;;;;;;21.60;15.98;;;10.30;96.30;;;;;;6194656;23;20446;-81
2022/11/14 00:22:11;;;;;;;23.92;16.70;;;10.30;96.40;;;;;;6219745;23;20058;-81
2022/11/14 00:24:37;;;;;;;27.45;17.60;;;10.20;96.40;;;;;;6220141;23;20091;-84
2022/11/14 00:27:03;;;;;;;23.17;15.90;;;10.20;96.50;;;;;;6220129;23;20008;-84
2022/11/14 00:29:28;;;;;;;23.27;16.17;;;10.20;96.60;;;;;;6195802;23;20000;-83
2022/11/14 00:31:54;;;;;;;25.63;17.02;;;10.10;96.50;;;;;;6195559;23;20004;-84
2022/11/14 00:34:19;;;;;;;26.35;18.15;;;10.10;96.50;;;;;;6195350;23;20331;-84
2022/11/14 00:36:45;;;;;;;25.58;18.02;;;10.10;96.60;;;;;;6195559;23;20004;-84
2022/11/14 00:39:16;;;;;;;29.27;18.52;;;10.00;96.60;;;;;;6195179;23;20099;-83
2022/11/14 00:41:44;;;;;;;29.13;18.02;;;10.00;96.70;;;;;;6220126;23;20012;-81
2022/11/14 00:44:10;;;;;;;29.00;17.83;;;10.00;96.70;;;;;;6194874;23;20018;-81
2022/11/14 00:46:36;;;;;;;26.20;18.45;;;9.90;96.70;;;;;;6194533;23;20083;-81
2022/11/14 00:49:01;;;;;;;26.35;18.42;;;9.90;96.80;;;;;;6219557;23;20000;-81
2022/11/14 00:51:30;;;;;;;26.48;18.83;;;9.90;96.80;;;;;;6194521;23;20008;-81
2022/11/14 00:53:56;;;;;;;27.90;19.30;;;9.90;96.80;;;;;;6219769;23;20078;-81
2022/11/14 00:56:21;;;;;;;29.60;19.08;;;9.80;96.90;;;;;;6219394;23;20020;-81
2022/11/14 00:58:47;;;;;;;28.83;19.63;;;9.80;97.00;;;;;;6194111;23;20018;-81
2022/11/14 01:01:13;;;;;;;26.23;18.15;;;9.80;97.10;;;;;;6194343;23;20087;-81
2022/11/14 01:03:39;;;;;;;31.00;19.42;;;9.70;97.10;;;;;;6194551;23;20012;-82
2022/11/14 01:06:07;;;;;;;31.33;19.52;;;9.70;97.10;;;;;;6218952;23;20095;-81
2022/11/14 01:08:33;;;;;;;30.40;20.52;;;9.70;97.20;;;;;;6219244;23;20004;-81
2022/11/14 01:10:59;;;;;;;30.80;20.80;;;9.60;97.20;;;;;;6219560;23;20004;-81
2022/11/14 01:13:26;;;;;;;29.00;19.90;;;9.60;97.20;;;;;;6194672;23;20025;-84
2022/11/14 01:15:53;;;;;;;30.70;20.50;;;9.60;97.50;;;;;;6220016;23;20083;-84
2022/11/14 01:18:20;;;;;;;31.70;20.80;;;9.60;97.30;;;;;;6220133;23;20000;-83
2022/11/14 01:20:47;;;;;;;30.23;20.50;;;9.50;97.30;;;;;;6195497;23;20032;-83
2022/11/14 01:23:15;;;;;;;29.35;21.02;;;9.50;97.40;;;;;;6220547;23;20557;-83
2022/11/14 01:25:41;;;;;;;30.98;20.52;;;9.50;97.40;;;;;;6220347;23;20008;-84
2022/11/14 01:28:10;;;;;;;30.92;21.75;;;9.50;97.40;;;;;;6219822;23;20331;-84
2022/11/14 01:30:36;;;;;;;30.58;21.48;;;9.40;97.50;;;;;;6220207;23;20035;-87
2022/11/14 01:33:02;;;;;;;34.08;22.08;;;9.40;97.60;;;;;;6220014;23;20001;-87
2022/11/14 01:35:28;;;;;;;32.10;21.25;;;9.40;97.70;;;;;;6220155;23;20008;-87
2022/11/14 01:37:54;;;;;;;32.28;21.17;;;9.40;97.70;;;;;;6219781;23;20414;-87
2022/11/14 01:40:20;;;;;;;33.75;22.45;;;9.30;97.70;;;;;;6194626;23;20011;-87
2022/11/14 01:43:13;;;;;;;32.70;22.00;;;9.30;97.70;;;;;;6194782;23;20332;-87
2022/11/14 01:46:00;;;;;;;32.50;21.77;;;9.30;97.70;;;;;;6219634;23;20015;-88
2022/11/14 01:48:32;;;;;;;34.47;22.20;;;9.20;97.70;;;;;;6219607;23;20000;-83
2022/11/14 01:51:04;;;;;;;35.95;22.23;;;9.20;97.70;;;;;;6219238;23;20007;-84
2022/11/14 01:53:30;;;;;;;33.78;21.67;;;9.20;97.80;;;;;;6219333;23;20001;-83
2022/11/14 01:55:59;;;;;;;33.33;21.77;;;9.20;97.90;;;;;;6218946;23;20123;-83
2022/11/14 01:58:26;;;;;;;34.53;21.27;;;9.10;97.80;;;;;;6219160;23;20050;-83
2022/11/14 02:00:52;;;;;;;34.85;21.58;;;9.10;97.90;;;;;;6219243;23;20007;-83
2022/11/14 02:03:21;;;;;;;33.67;21.67;;;9.10;97.90;;;;;;6194224;23;20434;-87
2022/11/14 02:06:02;;;;;;;33.78;21.98;;;9.00;98.00;;;;;;6246935;23;20027;-87
2022/11/14 02:08:35;;;;;;;35.00;22.05;;;9.00;98.00;;;;;;6220064;23;20006;-88
2022/11/14 02:11:01;;;;;;;33.08;22.05;;;9.00;98.00;;;;;;6219113;23;20062;-87
2022/11/14 02:13:27;;;;;;;34.08;23.17;;;8.90;98.10;;;;;;6195347;23;20000;-87
2022/11/14 02:15:53;;;;;;;36.67;22.35;;;8.90;98.10;;;;;;6194318;23;20082;-86
2022/11/14 02:18:19;;;;;;;35.50;22.55;;;8.90;98.10;;;;;;6220597;23;20015;-87
2022/11/14 02:20:45;;;;;;;34.00;22.35;;;8.90;98.10;;;;;;6221344;23;20005;-87
2022/11/14 02:23:11;;;;;;;36.45;23.05;;;8.80;98.10;;;;;;6196540;23;20008;-87
2022/11/14 02:25:38;;;;;;;35.72;22.73;;;8.80;98.20;;;;;;6221206;23;20434;-86
2022/11/14 02:28:08;;;;;;;35.60;22.58;;;8.80;98.30;;;;;;6221823;23;20012;-87
2022/11/14 02:30:34;;;;;;;33.03;21.40;;;8.70;98.40;;;;;;6221247;23;20000;-87
2022/11/14 02:33:00;;;;;;;33.03;22.08;;;8.70;98.40;;;;;;6221253;23;20027;-87
2022/11/14 02:35:25;;;;;;;39.17;22.80;;;8.70;98.50;;;;;;6196372;23;20430;-87
2022/11/14 02:37:51;;;;;;;34.33;21.85;;;8.70;98.40;;;;;;6196339;23;20000;-83
2022/11/14 02:40:17;;;;;;;35.28;22.25;;;8.60;98.40;;;;;;6221391;23;20429;-83
2022/11/14 02:42:45;;;;;;;34.15;21.15;;;8.60;98.50;;;;;;6220807;23;20082;-83
2022/11/14 02:45:12;;;;;;;34.10;23.45;;;8.60;98.60;;;;;;6220619;23;20035;-84
2022/11/14 02:47:37;;;;;;;34.20;22.38;;;8.60;98.60;;;;;;6171044;23;20461;-83
2022/11/14 02:50:03;;;;;;;36.58;22.40;;;8.60;98.80;;;;;;6220746;23;20031;-83
2022/11/14 02:52:30;;;;;;;34.33;21.70;;;8.60;98.60;;;;;;6195638;23;20007;-83
2022/11/14 02:54:55;;;;;;;35.40;21.90;;;8.50;98.60;;;;;;6247681;23;20008;-83
2022/11/14 02:57:21;;;;;;;34.53;21.50;;;8.50;98.70;;;;;;6195958;23;20008;-83
2022/11/14 02:59:47;;;;;;;34.60;22.33;;;8.50;98.80;;;;;;6247641;23;20305;-83
2022/11/14 03:02:13;;;;;;;35.70;22.00;;;8.50;98.80;;;;;;6220915;23;20008;-83
2022/11/14 03:04:38;;;;;;;36.05;22.75;;;8.40;98.80;;;;;;6220465;23;20008;-83
2022/11/14 03:07:04;;;;;;;39.63;23.77;;;8.40;98.80;;;;;;6220608;23;20327;-83
2022/11/14 03:09:30;;;;;;;36.67;22.17;;;8.40;98.90;;;;;;6220819;23;20004;-83
2022/11/14 03:11:55;;;;;;;36.00;22.55;;;8.40;98.90;;;;;;6221027;23;20031;-87
2022/11/14 03:14:21;;;;;;;35.67;21.27;;;8.40;98.90;;;;;;6221960;23;20000;-87
2022/11/14 03:16:47;;;;;;;38.15;23.27;;;8.40;98.90;;;;;;6220892;23;20015;-87
2022/11/14 03:19:12;;;;;;;41.03;23.75;;;8.30;98.90;;;;;;6195910;23;20015;-88
2022/11/14 03:21:44;;;;;;;35.95;21.95;;;8.30;98.90;;;;;;6220700;23;20437;-87
2022/11/14 03:24:10;;;;;;;35.78;21.95;;;8.30;99.30;;;;;;6221258;23;20061;-87
2022/11/14 03:26:35;;;;;;;34.60;21.27;;;8.30;99.00;;;;;;6221369;23;20094;-81
2022/11/14 03:29:01;;;;;;;35.55;22.20;;;8.20;99.00;;;;;;6195144;23;20374;-81
2022/11/14 03:31:27;;;;;;;34.95;20.77;;;8.20;99.10;;;;;;6195277;23;20004;-81
2022/11/14 03:33:52;;;;;;;35.47;21.40;;;8.20;99.10;;;;;;6195102;23;20012;-80
2022/11/14 03:36:18;;;;;;;36.45;21.40;;;8.20;99.20;;;;;;6195103;23;20016;-81
2022/11/14 03:38:44;;;;;;;34.67;20.95;;;8.20;99.20;;;;;;6220445;23;20008;-81
2022/11/14 03:41:09;;;;;;;33.88;21.35;;;8.20;99.20;;;;;;6195087;23;20015;-81
2022/11/14 03:43:35;;;;;;;35.97;22.15;;;8.10;99.20;;;;;;6220395;23;20011;-80
2022/11/14 03:46:02;;;;;;;36.42;22.02;;;8.10;99.30;;;;;;6220815;23;20046;-80
2022/11/14 03:48:28;;;;;;;36.90;21.65;;;8.10;99.30;;;;;;6220075;23;20106;-80
2022/11/14 03:50:54;;;;;;;34.50;21.88;;;8.10;99.30;;;;;;6219964;23;20011;-80
2022/11/14 03:53:20;;;;;;;35.35;21.10;;;8.10;99.30;;;;;;6194900;23;20362;-80
2022/11/14 03:55:46;;;;;;;37.13;21.52;;;8.10;99.30;;;;;;6214416;23;20066;-80
2022/11/14 03:58:14;;;;;;;36.45;21.05;;;8.00;99.30;;;;;;6189766;23;20188;-80
2022/11/14 04:00:40;;;;;;;36.42;21.63;;;8.00;99.40;;;;;;6215000;23;20088;-80
2022/11/14 04:03:06;;;;;;;36.50;21.63;;;8.00;99.40;;;;;;6214917;23;20016;-80
2022/11/14 04:05:31;;;;;;;35.75;21.63;;;8.00;99.40;;;;;;6189780;23;20497;-80
2022/11/14 04:07:57;;;;;;;35.03;21.98;;;7.90;99.40;;;;;;6190086;23;20007;-80
2022/11/14 04:10:23;;;;;;;36.38;21.17;;;7.90;99.40;;;;;;6189778;23;20028;-80
2022/11/14 04:12:50;;;;;;;34.20;20.38;;;7.90;99.40;;;;;;6164980;23;20008;-80
2022/11/14 04:15:17;;;;;;;34.15;19.92;;;7.90;99.50;;;;;;6214918;23;20001;-80
2022/11/14 04:17:43;;;;;;;34.17;21.30;;;7.80;99.40;;;;;;6215014;23;20017;-83
2022/11/14 04:20:10;;;;;;;33.65;20.70;;;7.80;99.50;;;;;;6215131;23;20423;-83
2022/11/14 04:22:35;;;;;;;37.85;21.52;;;7.80;99.50;;;;;;6215320;23;20012;-83
2022/11/14 04:25:01;;;;;;;37.97;22.38;;;7.70;99.60;;;;;;6216278;23;20009;-83
2022/11/14 04:27:27;;;;;;;34.85;21.27;;;7.70;99.60;;;;;;6214701;23;20421;-83
2022/11/14 04:29:52;;;;;;;33.95;21.10;;;7.70;99.70;;;;;;6215062;23;20135;-83
2022/11/14 04:32:18;;;;;;;36.80;21.65;;;7.70;99.70;;;;;;6189794;23;20009;-83
2022/11/14 04:34:53;;;;;;;35.35;21.88;;;7.70;99.70;;;;;;6215338;23;20431;-81
2022/11/14 04:37:18;;;;;;;34.65;21.23;;;7.70;99.70;;;;;;6169384;23;20342;-87
2022/11/14 04:39:44;;;;;;;38.00;22.00;;;7.60;99.80;;;;;;6166219;23;20036;-87
2022/11/14 04:42:10;;;;;;;35.15;21.75;;;7.60;99.90;;;;;;6166355;23;20009;-87
2022/11/14 04:44:35;;;;;;;35.50;21.02;;;7.60;99.90;;;;;;6166046;23;20005;-87
2022/11/14 04:47:01;;;;;;;37.75;21.20;;;7.60;99.90;;;;;;6165650;23;20019;-87
2022/11/14 04:49:27;;;;;;;36.03;20.95;;;7.60;99.90;;;;;;6190024;23;20009;-87
2022/11/14 04:51:53;;;;;;;37.65;21.52;;;7.50;99.90;;;;;;6214573;23;20012;-80
2022/11/14 04:54:18;;;;;;;34.70;21.00;;;7.50;99.90;;;;;;6215705;23;20008;-80
2022/11/14 04:56:44;;;;;;;38.17;20.95;;;7.50;99.80;;;;;;6166509;23;20395;-80
2022/11/14 04:59:30;;;;;;;36.38;22.20;;;7.50;99.80;;;;;;6184402;23;20087;-80
2022/11/14 05:01:56;;;;;;;35.97;20.92;;;7.50;99.90;;;;;;6184019;23;20015;-80
2022/11/14 05:04:22;;;;;;;37.40;21.67;;;7.40;99.90;;;;;;6186634;23;20040;-80
2022/11/14 05:10:10;;;;;;;35.83;21.30;;;7.40;99.90;;;;;;6235162;23;20103;-81
2022/11/14 05:12:35;;;;;;;36.15;21.42;;;7.40;99.90;;;;;;6194601;23;20001;-81
2022/11/14 05:15:01;;;;;;;34.47;20.40;;;7.30;99.90;;;;;;6219315;23;20411;-81
2022/11/14 05:17:27;;;;;;;37.20;22.10;;;7.30;99.90;;;;;;6219296;23;20004;-81
2022/11/14 05:19:53;;;;;;;41.22;23.63;;;7.30;99.90;;;;;;6219141;23;20008;-80
2022/11/14 05:22:19;;;;;;;33.88;21.05;;;7.30;99.90;;;;;;6219260;23;20079;-80
2022/11/14 05:24:44;;;;;;;39.35;21.98;;;7.30;99.90;;;;;;6169830;23;20383;-86
2022/11/14 05:27:10;;;;;;;33.88;21.15;;;7.30;99.90;;;;;;6219914;23;20035;-85
2022/11/14 05:29:36;;;;;;;38.92;21.60;;;7.20;99.90;;;;;;6219834;23;20423;-88
2022/11/14 05:32:02;;;;;;;35.28;21.48;;;7.20;99.90;;;;;;6220366;23;20003;-87
2022/11/14 05:34:27;;;;;;;36.85;21.02;;;7.20;99.90;;;;;;6194876;23;20083;-87
2022/11/14 05:36:53;;;;;;;37.30;21.27;;;7.10;99.90;;;;;;6194558;23;20316;-87
2022/11/14 05:39:19;;;;;;;35.45;20.88;;;7.10;99.90;;;;;;6219657;23;20015;-87
2022/11/14 05:41:45;;;;;;;35.85;20.77;;;7.10;99.90;;;;;;6194130;23;20019;-81
2022/11/14 05:44:11;;;;;;;37.08;20.23;;;7.10;99.90;;;;;;6218963;23;20091;-80
2022/11/14 05:46:37;;;;;;;35.03;20.70;;;7.10;99.90;;;;;;6245578;23;20004;-80
2022/11/14 05:49:02;;;;;;;35.70;20.92;;;7.00;99.90;;;;;;6218614;23;20304;-80
2022/11/14 05:51:28;;;;;;;38.75;22.23;;;7.00;99.90;;;;;;6245418;23;20028;-80
2022/11/14 05:53:54;;;;;;;36.30;21.58;;;7.00;99.90;;;;;;6219942;23;20087;-81
2022/11/14 05:56:20;;;;;;;36.35;21.50;;;7.00;99.90;;;;;;6220504;23;20107;-80
2022/11/14 05:58:45;;;;;;;36.88;21.50;;;7.00;99.90;;;;;;6220960;23;20489;-80
2022/11/14 06:01:14;;;;;;;38.13;21.25;;;7.00;99.90;;;;;;6221075;23;20061;-80
2022/11/14 06:03:46;;;;;;;36.90;20.50;;;6.90;99.90;;;;;;6220305;23;20011;-80
2022/11/14 06:06:20;;;;;;;36.22;20.23;;;6.90;99.90;;;;;;6221055;23;20443;-80
2022/11/14 06:08:47;;;;;;;36.55;20.45;;;6.90;99.90;;;;;;6219082;23;20004;-80
2022/11/14 06:11:15;;;;;;;37.67;21.55;;;6.80;99.90;;;;;;6219376;23;20032;-80
2022/11/14 06:13:42;;;;;;;34.92;20.83;;;6.80;99.90;;;;;;6219911;23;20050;-87
2022/11/14 06:16:10;;;;;;;34.22;20.73;;;6.80;99.90;;;;;;6196207;23;20327;-87
2022/11/14 06:18:36;;;;;;;34.28;20.67;;;6.80;99.90;;;;;;6230040;23;20415;-86
2022/11/14 06:21:09;;;;;;;35.35;21.17;;;6.70;99.90;;;;;;6221369;23;20004;-86
2022/11/14 06:23:34;;;;;;;34.45;20.08;;;6.70;99.90;;;;;;6247652;23;20000;-87
2022/11/14 06:26:03;;;;;;;34.83;21.10;;;6.70;99.90;;;;;;6220866;23;20008;-87
2022/11/14 06:28:29;;;;;;;36.95;20.90;;;6.70;99.90;;;;;;6223001;23;20000;-85
2022/11/14 06:31:00;;;;;;;34.35;20.48;;;6.70;99.90;;;;;;6197376;23;20074;-83
2022/11/14 06:33:28;;;;;;;36.47;21.10;;;6.60;99.90;;;;;;6221276;23;20009;-83
2022/11/14 06:35:58;;;;;;;35.42;21.00;;;6.60;99.90;;;;;;6247934;23;20011;-83
2022/11/14 06:38:24;;;;;;;35.88;19.77;;;6.60;99.90;;;;;;6221202;23;20334;-83
2022/11/14 06:40:49;;;;;;;35.10;20.65;;;6.60;99.90;;;;;;6220910;23;20008;-83
2022/11/14 06:43:15;;;;;;;34.67;20.00;;;6.60;99.90;;;;;;6221585;23;20015;-83
2022/11/14 06:45:41;;;;;;;34.42;20.35;;;6.60;99.90;;;;;;6195627;23;20012;-83
2022/11/14 06:48:07;;;;;;;35.25;19.92;;;6.50;99.90;;;;;;6195887;23;20050;-81
2022/11/14 06:50:32;;;;;;;37.30;20.88;;;6.50;99.90;;;;;;6220650;23;20299;-81
2022/11/14 06:52:58;;;;;;;34.47;19.77;;;6.50;99.90;;;;;;6220694;23;20065;-81
2022/11/14 06:55:24;;;;;;;31.95;18.48;;;6.50;99.90;;;;;;6195596;23;20079;-81
2022/11/14 06:57:53;;;;;;;35.42;20.10;;;6.50;99.90;;;;;;6195516;23;20008;-82
2022/11/14 07:00:20;;;;;;;34.22;19.83;;;6.50;99.90;;;;;;6220473;23;20016;-81
2022/11/14 07:02:47;;;;;;;33.17;19.67;;;6.40;99.90;;;;;;6220768;23;20004;-83
2022/11/14 07:05:13;;;;;;;33.03;18.33;;;6.40;99.90;;;;;;6195953;23;20015;-83
2022/11/14 07:07:39;;;;;;;33.38;19.30;;;6.40;99.90;;;;;;6220694;23;20043;-83
2022/11/14 07:10:05;;;;;;;35.20;20.33;;;6.40;99.90;;;;;;6215679;23;20012;-84
2022/11/14 07:12:31;;;;;;;32.67;18.58;;;6.40;99.90;;;;;;6215874;23;20005;-83
2022/11/14 07:14:57;;;;;;;34.53;19.55;;;6.40;99.90;;;;;;6191056;23;20075;-83
2022/11/14 07:17:23;;;;;;;32.67;18.80;;;6.40;99.90;;;;;;6215634;23;20005;-81
2022/11/14 07:19:49;;;;;;;32.25;18.83;;;6.40;99.90;;;;;;6215366;23;20015;-83
2022/11/14 07:22:15;;;;;;;35.67;19.48;;;6.30;99.90;;;;;;6166081;23;20016;-83
2022/11/14 07:24:40;;;;;;;33.97;18.95;;;6.30;99.90;;;;;;6190741;23;20036;-83
2022/11/14 07:27:12;;;;;;;34.70;18.95;;;6.30;99.90;;;;;;6190459;23;20431;-83
2022/11/14 07:29:38;;;;;;;30.27;17.63;;;6.30;99.90;;;;;;6215809;23;20011;-83
2022/11/14 07:32:04;;;;;;;32.25;19.88;;;6.30;99.90;;;;;;6216147;23;20040;-83
2022/11/14 07:34:29;;;;;;;36.78;19.85;;;6.30;99.90;;;;;;6190767;23;20088;-83
2022/11/14 07:36:55;;;;;;;33.80;19.48;;;6.30;99.90;;;;;;6216228;23;20059;-83
2022/11/14 07:39:21;;;;;;;32.30;18.55;;;6.30;99.90;;;;;;6189241;23;20273;-83
2022/11/14 07:41:47;;;;;;;32.42;18.50;;;6.30;99.90;;;;;;6189646;23;20312;-83
2022/11/14 07:44:12;;;;;;;32.60;18.38;;;6.30;99.90;;;;;;6214897;23;20352;-83
2022/11/14 07:46:38;;;;;;;31.70;18.58;;;6.20;99.90;;;;;;6165703;23;20020;-83
2022/11/14 07:49:04;;;;;;;32.90;18.33;;;6.30;99.90;;;;;;6217597;23;20008;-83
2022/11/14 07:51:30;;;;;;;30.60;17.67;;;6.30;99.90;;;;;;6196642;23;20027;-83
2022/11/14 07:53:55;;;;;;;31.92;19.30;;;6.20;99.90;;;;;;6218320;23;20054;-80
2022/11/14 07:56:21;;;;;;;33.65;18.77;;;6.30;99.90;;;;;;6214112;23;20008;-80
2022/11/14 07:58:47;;;;;;;33.95;19.00;;;6.30;99.90;;;;;;6216421;23;20446;-80
2022/11/14 08:01:13;;;;;;;32.95;18.35;;;6.20;99.90;;;;;;6216276;23;20011;-80
2022/11/14 08:03:40;;;;;;;31.80;18.98;;;6.30;99.90;;;;;;6214093;23;20017;-80
2022/11/14 08:06:15;;;;;;;29.88;18.00;;;6.30;99.90;;;;;;6214217;23;20005;-80
2022/11/14 08:08:41;;;;;;;30.17;17.23;;;6.30;99.90;;;;;;6217830;23;19996;-80
2022/11/14 08:11:07;;;;;;;31.80;18.13;;;6.30;99.90;;;;;;6227803;23;20024;-83
2022/11/14 08:13:33;;;;;;;31.50;18.27;;;6.30;99.90;;;;;;6231257;23;20459;-83
2022/11/14 08:16:04;;;;;;;32.17;18.80;;;6.30;99.90;;;;;;6208931;23;20004;-83
2022/11/14 08:18:29;;;;;;;30.73;18.38;;;6.30;99.90;;;;;;6226564;23;20012;-81
2022/11/14 08:20:56;;;;;;;31.13;17.50;;;6.30;99.90;;;;;;6194690;23;20012;-82
2022/11/14 08:23:22;;;;;;;31.13;17.73;;;6.30;99.90;;;;;;6194830;23;20011;-80
2022/11/14 08:25:48;;;;;;;29.75;16.98;;;6.30;99.90;;;;;;6194169;23;20016;-81
2022/11/14 08:28:14;;;;;;;30.42;17.55;;;6.30;99.90;;;;;;6194822;23;20008;-81
2022/11/14 08:30:39;;;;;;;32.20;16.92;;;6.30;99.90;;;;;;6219486;23;20005;-81
2022/11/14 08:33:06;;;;;;;32.63;18.35;;;6.40;99.90;;;;;;6194568;23;20031;-81
2022/11/14 08:35:33;;;;;;;32.65;16.75;;;6.40;99.90;;;;;;6245948;23;20008;-81
2022/11/14 08:38:00;;;;;;;27.75;16.30;;;6.40;99.90;;;;;;6219742;23;20024;-83
2022/11/14 08:40:26;;;;;;;30.75;18.48;;;6.40;99.90;;;;;;6219516;23;20300;-83
2022/11/14 08:42:57;;;;;;;29.38;16.42;;;6.40;99.90;;;;;;6193765;23;20011;-83
2022/11/14 08:45:22;;;;;;;32.15;17.70;;;6.40;99.90;;;;;;6218806;23;20005;-81
2022/11/14 08:47:52;;;;;;;29.83;17.65;;;6.50;99.90;;;;;;6219126;23;20015;-81
2022/11/14 08:50:18;;;;;;;29.70;17.33;;;6.50;99.90;;;;;;6245515;23;20028;-81
2022/11/14 08:52:49;;;;;;;31.38;17.92;;;6.50;99.90;;;;;;6245137;23;20619;-81
2022/11/14 08:55:15;;;;;;;27.48;16.98;;;6.50;99.90;;;;;;6245618;23;20423;-81
2022/11/14 08:57:40;;;;;;;42.33;17.95;;;6.50;99.90;;;;;;6194209;23;20095;-81
2022/11/14 09:00:07;;;;;;;27.20;15.98;;;6.60;99.90;;;;;;6169533;23;20019;-81
2022/11/14 09:02:33;;;;;;;27.63;16.35;;;6.60;99.90;;;;;;6219366;23;20070;-81
2022/11/14 09:04:59;;;;;;;28.90;17.08;;;6.60;99.90;;;;;;6246085;23;20008;-81
2022/11/14 09:07:25;;;;;;;27.55;16.85;;;6.60;99.90;;;;;;6193367;23;20008;-81
2022/11/14 09:09:51;;;;;;;27.55;16.90;;;6.70;99.90;;;;;;6219441;23;20091;-81
2022/11/14 09:12:16;;;;;;;27.83;16.95;;;6.70;99.90;;;;;;6194595;23;20019;-81
2022/11/14 09:14:42;;;;;;;26.58;16.40;;;6.80;99.90;;;;;;6194586;23;20396;-81
2022/11/14 09:17:08;;;;;;;31.35;17.50;;;6.80;99.90;;;;;;6169856;23;20008;-81
2022/11/14 09:19:33;;;;;;;27.92;16.00;;;6.80;99.90;;;;;;6219207;23;20342;-81
2022/11/14 09:21:59;;;;;;;24.55;15.43;;;6.90;99.90;;;;;;6194407;23;20426;-81
2022/11/14 09:24:25;;;;;;;28.73;16.77;;;6.90;99.90;;;;;;6194411;23;20035;-81
2022/11/14 09:26:51;;;;;;;26.30;16.50;;;6.90;99.90;;;;;;6169379;23;20378;-81
2022/11/14 09:29:17;;;;;;;27.90;17.52;;;7.00;99.90;;;;;;6219896;23;20007;-81
2022/11/14 09:31:43;;;;;;;26.20;16.05;;;7.00;99.90;;;;;;6246859;23;20018;-81
2022/11/14 09:34:09;;;;;;;26.30;15.75;;;7.00;99.90;;;;;;6220231;23;20075;-86
2022/11/14 09:36:35;;;;;;;27.10;15.93;;;7.10;99.90;;;;;;6195806;23;20063;-85
2022/11/14 09:39:03;;;;;;;24.17;15.52;;;7.10;99.90;;;;;;6219774;23;20013;-81
2022/11/14 09:41:50;;;;;;;32.28;16.08;;;7.20;99.90;;;;;;6219559;23;20008;-81
2022/11/14 09:44:22;;;;;;;30.30;16.73;;;7.20;99.90;;;;;;6219332;23;20004;-81
2022/11/14 09:47:09;;;;;;;26.60;16.33;;;7.30;99.90;;;;;;6246168;23;20004;-81
2022/11/14 09:49:39;;;;;;;21.65;14.43;;;7.30;99.90;;;;;;6246096;23;20423;-85
2022/11/14 09:52:10;;;;;;;27.42;16.00;;;7.40;99.90;;;;;;6219715;23;20443;-85
2022/11/14 09:55:17;;;;;;;26.33;15.80;;;7.40;99.90;;;;;;6220716;23;20004;-85
2022/11/14 09:57:44;;;;;;;26.88;16.55;;;7.50;99.90;;;;;;6127635;23;20002;-85
2022/11/14 10:00:23;;;;;;;24.88;14.80;;;7.50;99.90;;;;;;6228851;23;20015;-85
2022/11/14 10:03:22;;;;;;;23.75;15.65;;;7.60;99.90;;;;;;6220978;23;20000;-85
2022/11/14 10:06:17;;;;;;;23.55;14.40;;;7.60;99.90;;;;;;6245837;23;20007;-83
2022/11/14 10:09:04;;;;;;;22.05;15.40;;;7.70;99.90;;;;;;6222026;23;20007;-81
2022/11/14 10:11:52;;;;;;;26.23;14.85;;;7.70;99.90;;;;;;6247846;23;20074;-81
2022/11/14 10:14:37;;;;;;;23.48;14.27;;;7.80;99.90;;;;;;6246802;23;20004;-81
2022/11/14 10:17:23;;;;;;;22.88;14.65;;;7.90;99.90;;;;;;6219244;23;20008;-82
2022/11/14 10:20:12;;;;;;;22.90;14.10;;;7.90;99.90;;;;;;6219182;23;20016;-82
2022/11/14 10:22:46;;;;;;;25.52;15.23;;;8.10;99.90;;;;;;6245978;23;20076;-81
2022/11/14 10:25:20;;;;;;;25.40;14.52;;;8.10;99.90;;;;;;6219943;23;20000;-85
2022/11/14 10:28:14;;;;;;;24.83;14.70;;;8.20;99.90;;;;;;6246590;23;20004;-85
2022/11/14 10:30:59;;;;;;;21.75;14.30;;;8.30;99.90;;;;;;6220877;23;20068;-85
2022/11/14 10:33:39;;;;;;;21.45;13.48;;;8.30;99.90;;;;;;6221403;23;20004;-84
2022/11/14 10:36:32;;;;;;;21.90;14.18;;;8.40;99.90;;;;;;6223409;23;20004;-85
2022/11/14 10:39:06;;;;;;;19.60;13.23;;;8.50;99.90;;;;;;6220875;23;20453;-83
2022/11/14 10:41:33;;;;;;;22.23;14.85;;;8.60;99.90;;;;;;6249576;23;20000;-84
2022/11/14 10:44:01;;;;;;;19.27;13.70;;;8.70;99.90;;;;;;6196324;23;20494;-84
2022/11/14 10:46:33;;;;;;;22.30;14.48;;;8.80;99.90;;;;;;6221459;23;20099;-84
2022/11/14 10:48:59;;;;;;;21.35;13.30;;;8.80;99.90;;;;;;6221118;23;20000;-82
2022/11/14 10:51:34;;;;;;;20.92;13.82;;;8.90;99.90;;;;;;6220706;23;19996;-82
2022/11/14 10:54:08;;;;;;;22.88;14.30;;;9.00;99.90;;;;;;6220758;23;20004;-83
2022/11/14 10:56:34;;;;;;;21.80;13.73;;;9.10;99.90;;;;;;6247715;23;20008;-80
2022/11/14 10:59:00;;;;;;;20.50;13.77;;;9.20;99.90;;;;;;6248156;23;20054;-79
2022/11/14 11:01:43;;;;;;;22.05;13.80;;;9.20;99.90;;;;;;6247661;23;20020;-79
2022/11/14 11:04:29;;;;;;;21.70;13.63;;;9.30;99.90;;;;;;6220768;23;20009;-79
2022/11/14 11:07:06;;;;;;;22.52;14.30;;;9.40;99.90;;;;;;6220378;23;20066;-79
2022/11/14 11:12:23;;;;;;;21.85;14.68;;;9.50;99.90;;;;;;6249380;23;20445;-80
2022/11/14 11:15:26;;;;;;;24.02;14.48;;;9.60;99.90;;;;;;6254172;23;20049;-84
2022/11/14 11:17:57;;;;;;;21.13;14.52;;;9.70;99.90;;;;;;6253078;23;20035;-85
2022/11/14 11:20:29;;;;;;;21.65;14.45;;;9.80;99.90;;;;;;6203460;23;20054;-85
2022/11/14 11:23:10;;;;;;;20.35;13.82;;;9.90;99.90;;;;;;6229211;23;20422;-85
2022/11/14 11:25:38;;;;;;;23.17;15.15;;;10.00;99.90;;;;;;6226696;23;20005;-85
2022/11/14 11:28:21;;;;;;;22.73;15.48;;;10.10;99.90;;;;;;6224792;23;20027;-85
2022/11/14 11:30:58;;;;;;;22.80;14.93;;;10.10;99.90;;;;;;6222881;23;20095;-82
2022/11/14 11:33:27;;;;;;;21.30;14.95;;;10.20;99.90;;;;;;6220342;23;20312;-83
2022/11/14 11:35:56;;;;;;;23.70;15.75;;;10.20;99.90;;;;;;6220244;23;20079;-83
2022/11/14 11:38:25;;;;;;;25.20;15.63;;;10.20;99.90;;;;;;6220252;23;20000;-83
2022/11/14 11:40:57;;;;;;;23.13;16.40;;;10.20;99.90;;;;;;6247111;23;20000;-82
2022/11/14 11:43:36;;;;;;;27.75;16.95;;;10.30;99.90;;;;;;6220171;23;20024;-82
2022/11/14 11:46:08;;;;;;;22.73;16.15;;;10.30;99.90;;;;;;6219820;23;20008;-83
2022/11/14 11:48:38;;;;;;;23.35;16.58;;;10.20;99.90;;;;;;6220266;23;20049;-81
2022/11/14 11:51:05;;;;;;;26.58;16.65;;;10.20;99.90;;;;;;6246481;23;20063;-82
2022/11/14 11:53:40;;;;;;;24.05;15.88;;;10.20;99.90;;;;;;6246745;23;20007;-81
2022/11/14 11:56:11;;;;;;;28.42;17.92;;;10.20;99.90;;;;;;6220051;23;20000;-81
2022/11/14 11:59:21;;;;;;;28.10;17.77;;;10.10;99.90;;;;;;6249346;23;20027;-81
2022/11/14 12:01:49;;;;;;;25.98;17.38;;;10.20;99.90;;;;;;6124092;23;20010;-81
2022/11/14 12:04:14;;;;;;;25.88;16.92;;;10.10;99.90;;;;;;6225300;23;20031;-82
2022/11/14 12:07:14;;;;;;;27.20;17.98;;;10.10;99.90;;;;;;6219833;23;20379;-82
2022/11/14 12:09:41;;;;;;;29.40;17.42;;;10.10;99.90;;;;;;6214522;23;20008;-83
2022/11/14 12:12:24;;;;;;;28.20;19.15;;;10.10;99.90;;;;;;6214920;23;20005;-82
2022/11/14 12:15:15;;;;;;;28.88;19.23;;;10.10;99.90;;;;;;6215033;23;20020;-83
2022/11/14 12:17:50;;;;;;;;;;;10.10;99.90;;;;;;6217267;23;20035;-82
2022/11/14 12:20:28;;;;;;;27.92;19.30;;;10.10;99.90;;;;;;6215240;23;19954;-80
2022/11/14 12:23:50;;;;;;;28.20;18.10;;;10.20;99.90;;;;;;6217146;23;20106;-80
2022/11/14 12:26:33;;;;;;;31.80;19.55;;;10.20;99.90;;;;;;6154082;23;20017;-79
2022/11/14 12:29:25;;;;;;;31.52;20.60;;;10.20;99.90;;;;;;6232142;23;20360;-79
2022/11/14 12:32:18;;;;;;;29.77;19.70;;;10.20;99.90;;;;;;6229514;23;20001;-79
2022/11/14 12:34:46;;;;;;;29.70;20.15;;;10.30;99.90;;;;;;6214416;23;20040;-79
2022/11/14 12:37:21;;;;;;;30.63;19.05;;;10.30;99.90;;;;;;6214648;23;20410;-82
2022/11/14 12:40:03;;;;;;;26.92;18.50;;;10.30;99.90;;;;;;6215324;23;20026;-82
2022/11/14 12:42:31;;;;;;;29.13;19.23;;;10.30;99.90;;;;;;6214717;23;20040;-82
2022/11/14 12:44:57;;;;;;;31.13;19.25;;;10.30;99.90;;;;;;6212750;23;20008;-83
2022/11/14 12:47:25;;;;;;;29.38;18.90;;;10.40;99.90;;;;;;6188676;23;20032;-83
2022/11/14 12:49:51;;;;;;;26.05;18.70;;;10.40;99.90;;;;;;6215429;23;20005;-83
2022/11/14 12:52:39;;;;;;;27.38;17.40;;;10.40;99.90;;;;;;6214406;23;20447;-83